sensor_id;sensor_type;location;lat;lon;timestamp;P1;durP1;ratioP1;P2;durP2;ratioP2
3795;SDS011;1913;50.660;7.834;2023-08-01T00:01:57;2.03;;;1.70;;
3795;SDS011;1913;50.660;7.834;2023-08-01T00:04:22;2.50;;;1.47;;
3795;SDS011;1913;50.660;7.834;2023-08-01T00:06:47;6.20;;;1.47;;
3795;SDS011;1913;50.660;7.834;2023-08-01T00:09:13;2.70;;;1.60;;
3795;SDS011;1913;50.660;7.834;2023-08-01T00:11:38;2.63;;;1.70;;
3795;SDS011;1913;50.660;7.834;2023-08-01T00:14:04;2.30;;;1.70;;
3795;SDS011;1913;50.660;7.834;2023-08-01T00:16:29;3.23;;;1.80;;
3795;SDS011;1913;50.660;7.834;2023-08-01T00:18:54;4.90;;;2.20;;
3795;SDS011;1913;50.660;7.834;2023-08-01T00:21:20;2.77;;;1.80;;
3795;SDS011;1913;50.660;7.834;2023-08-01T00:23:45;3.67;;;2.10;;
3795;SDS011;1913;50.660;7.834;2023-08-01T00:26:11;3.07;;;2.10;;
3795;SDS011;1913;50.660;7.834;2023-08-01T00:28:36;3.53;;;1.47;;
3795;SDS011;1913;50.660;7.834;2023-08-01T00:31:02;2.03;;;1.83;;
3795;SDS011;1913;50.660;7.834;2023-08-01T00:33:32;2.23;;;1.60;;
3795;SDS011;1913;50.660;7.834;2023-08-01T00:35:57;2.27;;;1.80;;
3795;SDS011;1913;50.660;7.834;2023-08-01T00:38:23;1.90;;;1.80;;
3795;SDS011;1913;50.660;7.834;2023-08-01T00:40:48;2.07;;;1.70;;
3795;SDS011;1913;50.660;7.834;2023-08-01T00:43:15;1.53;;;1.20;;
3795;SDS011;1913;50.660;7.834;2023-08-01T00:45:40;1.50;;;1.33;;
3795;SDS011;1913;50.660;7.834;2023-08-01T00:48:06;1.30;;;1.20;;
3795;SDS011;1913;50.660;7.834;2023-08-01T00:50:31;1.83;;;1.37;;
3795;SDS011;1913;50.660;7.834;2023-08-01T00:52:58;2.13;;;1.30;;
3795;SDS011;1913;50.660;7.834;2023-08-01T00:55:23;1.67;;;1.40;;
3795;SDS011;1913;50.660;7.834;2023-08-01T00:57:49;1.30;;;1.20;;
3795;SDS011;1913;50.660;7.834;2023-08-01T01:00:14;1.63;;;1.30;;
3795;SDS011;1913;50.660;7.834;2023-08-01T01:02:40;1.60;;;1.43;;
3795;SDS011;1913;50.660;7.834;2023-08-01T01:05:05;1.60;;;1.23;;
3795;SDS011;1913;50.660;7.834;2023-08-01T01:07:31;1.97;;;1.40;;
3795;SDS011;1913;50.660;7.834;2023-08-01T01:09:58;1.40;;;1.30;;
3795;SDS011;1913;50.660;7.834;2023-08-01T01:12:23;1.63;;;1.40;;
3795;SDS011;1913;50.660;7.834;2023-08-01T01:14:49;2.70;;;1.40;;
3795;SDS011;1913;50.660;7.834;2023-08-01T01:17:14;1.63;;;1.47;;
3795;SDS011;1913;50.660;7.834;2023-08-01T01:19:40;1.53;;;1.20;;
3795;SDS011;1913;50.660;7.834;2023-08-01T01:22:06;1.40;;;1.30;;
3795;SDS011;1913;50.660;7.834;2023-08-01T01:24:34;5.90;;;1.50;;
3795;SDS011;1913;50.660;7.834;2023-08-01T01:27:00;2.40;;;1.80;;
3795;SDS011;1913;50.660;7.834;2023-08-01T01:29:29;1.97;;;1.47;;
3795;SDS011;1913;50.660;7.834;2023-08-01T01:31:55;2.17;;;1.50;;
3795;SDS011;1913;50.660;7.834;2023-08-01T01:34:21;1.87;;;1.40;;
3795;SDS011;1913;50.660;7.834;2023-08-01T01:36:47;1.53;;;1.40;;
3795;SDS011;1913;50.660;7.834;2023-08-01T01:39:12;2.80;;;1.80;;
3795;SDS011;1913;50.660;7.834;2023-08-01T01:41:37;2.43;;;1.70;;
3795;SDS011;1913;50.660;7.834;2023-08-01T01:44:03;1.50;;;1.30;;
3795;SDS011;1913;50.660;7.834;2023-08-01T01:46:28;2.60;;;1.93;;
3795;SDS011;1913;50.660;7.834;2023-08-01T01:48:54;3.30;;;1.70;;
3795;SDS011;1913;50.660;7.834;2023-08-01T01:51:20;3.23;;;1.70;;
3795;SDS011;1913;50.660;7.834;2023-08-01T01:53:46;1.80;;;1.40;;
3795;SDS011;1913;50.660;7.834;2023-08-01T01:56:12;1.70;;;1.60;;
3795;SDS011;1913;50.660;7.834;2023-08-01T01:58:37;2.30;;;2.10;;
3795;SDS011;1913;50.660;7.834;2023-08-01T02:01:02;4.10;;;1.97;;
3795;SDS011;1913;50.660;7.834;2023-08-01T02:03:28;3.77;;;2.27;;
3795;SDS011;1913;50.660;7.834;2023-08-01T02:05:53;1.83;;;1.73;;
3795;SDS011;1913;50.660;7.834;2023-08-01T02:08:19;2.37;;;2.03;;
3795;SDS011;1913;50.660;7.834;2023-08-01T02:10:44;3.73;;;2.10;;
3795;SDS011;1913;50.660;7.834;2023-08-01T02:13:09;3.03;;;1.70;;
3795;SDS011;1913;50.660;7.834;2023-08-01T02:15:35;2.20;;;1.67;;
3795;SDS011;1913;50.660;7.834;2023-08-01T02:18:00;2.47;;;1.40;;
3795;SDS011;1913;50.660;7.834;2023-08-01T02:20:25;1.77;;;1.43;;
3795;SDS011;1913;50.660;7.834;2023-08-01T02:22:52;3.10;;;1.50;;
3795;SDS011;1913;50.660;7.834;2023-08-01T02:25:17;1.83;;;1.20;;
3795;SDS011;1913;50.660;7.834;2023-08-01T02:27:43;2.20;;;0.90;;
3795;SDS011;1913;50.660;7.834;2023-08-01T02:30:08;2.57;;;1.10;;
3795;SDS011;1913;50.660;7.834;2023-08-01T02:32:34;1.93;;;1.00;;
3795;SDS011;1913;50.660;7.834;2023-08-01T02:34:59;1.23;;;0.80;;
3795;SDS011;1913;50.660;7.834;2023-08-01T02:37:24;3.07;;;1.10;;
3795;SDS011;1913;50.660;7.834;2023-08-01T02:39:50;4.93;;;1.10;;
3795;SDS011;1913;50.660;7.834;2023-08-01T02:42:15;2.27;;;1.27;;
3795;SDS011;1913;50.660;7.834;2023-08-01T02:44:41;0.97;;;0.97;;
3795;SDS011;1913;50.660;7.834;2023-08-01T02:47:06;1.77;;;1.13;;
3795;SDS011;1913;50.660;7.834;2023-08-01T02:49:31;1.10;;;1.00;;
3795;SDS011;1913;50.660;7.834;2023-08-01T02:51:57;1.00;;;0.90;;
3795;SDS011;1913;50.660;7.834;2023-08-01T02:54:23;1.33;;;0.97;;
3795;SDS011;1913;50.660;7.834;2023-08-01T02:56:49;1.30;;;1.20;;
3795;SDS011;1913;50.660;7.834;2023-08-01T02:59:15;1.77;;;1.30;;
3795;SDS011;1913;50.660;7.834;2023-08-01T03:01:40;1.50;;;1.30;;
3795;SDS011;1913;50.660;7.834;2023-08-01T03:04:06;1.60;;;1.20;;
3795;SDS011;1913;50.660;7.834;2023-08-01T03:06:32;1.43;;;1.30;;
3795;SDS011;1913;50.660;7.834;2023-08-01T03:08:58;1.20;;;1.10;;
3795;SDS011;1913;50.660;7.834;2023-08-01T03:11:24;1.37;;;1.20;;
3795;SDS011;1913;50.660;7.834;2023-08-01T03:13:49;2.83;;;1.10;;
3795;SDS011;1913;50.660;7.834;2023-08-01T03:16:15;0.90;;;0.80;;
3795;SDS011;1913;50.660;7.834;2023-08-01T03:18:41;0.97;;;0.90;;
3795;SDS011;1913;50.660;7.834;2023-08-01T03:21:06;1.10;;;1.00;;
3795;SDS011;1913;50.660;7.834;2023-08-01T03:23:32;2.47;;;1.20;;
3795;SDS011;1913;50.660;7.834;2023-08-01T03:25:58;1.30;;;1.20;;
3795;SDS011;1913;50.660;7.834;2023-08-01T03:28:23;1.20;;;1.03;;
3795;SDS011;1913;50.660;7.834;2023-08-01T03:30:50;1.73;;;1.10;;
3795;SDS011;1913;50.660;7.834;2023-08-01T03:33:18;1.77;;;1.20;;
3795;SDS011;1913;50.660;7.834;2023-08-01T03:35:44;1.30;;;1.20;;
3795;SDS011;1913;50.660;7.834;2023-08-01T03:38:10;2.53;;;1.13;;
3795;SDS011;1913;50.660;7.834;2023-08-01T03:40:35;2.03;;;1.30;;
3795;SDS011;1913;50.660;7.834;2023-08-01T03:43:01;1.50;;;1.40;;
3795;SDS011;1913;50.660;7.834;2023-08-01T03:45:26;2.33;;;1.27;;
3795;SDS011;1913;50.660;7.834;2023-08-01T03:47:52;1.50;;;1.40;;
3795;SDS011;1913;50.660;7.834;2023-08-01T03:50:17;1.43;;;1.33;;
3795;SDS011;1913;50.660;7.834;2023-08-01T03:52:43;1.50;;;1.20;;
3795;SDS011;1913;50.660;7.834;2023-08-01T03:55:10;2.70;;;1.90;;
3795;SDS011;1913;50.660;7.834;2023-08-01T03:57:36;2.80;;;1.70;;
3795;SDS011;1913;50.660;7.834;2023-08-01T04:00:06;1.80;;;1.70;;
3795;SDS011;1913;50.660;7.834;2023-08-01T04:02:41;2.40;;;2.20;;
3795;SDS011;1913;50.660;7.834;2023-08-01T04:05:07;22.03;;;3.00;;
3795;SDS011;1913;50.660;7.834;2023-08-01T04:07:34;2.40;;;2.20;;
3795;SDS011;1913;50.660;7.834;2023-08-01T04:10:03;2.23;;;2.07;;
3795;SDS011;1913;50.660;7.834;2023-08-01T04:12:32;2.10;;;1.70;;
3795;SDS011;1913;50.660;7.834;2023-08-01T04:14:59;5.13;;;2.07;;
3795;SDS011;1913;50.660;7.834;2023-08-01T04:17:24;2.93;;;1.90;;
3795;SDS011;1913;50.660;7.834;2023-08-01T04:19:50;2.63;;;2.10;;
3795;SDS011;1913;50.660;7.834;2023-08-01T04:22:15;2.50;;;1.97;;
3795;SDS011;1913;50.660;7.834;2023-08-01T04:24:41;2.33;;;1.90;;
3795;SDS011;1913;50.660;7.834;2023-08-01T04:27:06;3.53;;;2.10;;
3795;SDS011;1913;50.660;7.834;2023-08-01T04:29:32;5.67;;;2.43;;
3795;SDS011;1913;50.660;7.834;2023-08-01T04:31:57;4.90;;;3.57;;
3795;SDS011;1913;50.660;7.834;2023-08-01T04:34:22;5.40;;;3.57;;
3795;SDS011;1913;50.660;7.834;2023-08-01T04:36:48;10.33;;;4.03;;
3795;SDS011;1913;50.660;7.834;2023-08-01T04:39:13;6.87;;;4.80;;
3795;SDS011;1913;50.660;7.834;2023-08-01T04:41:39;10.03;;;5.13;;
3795;SDS011;1913;50.660;7.834;2023-08-01T04:44:04;5.73;;;5.10;;
3795;SDS011;1913;50.660;7.834;2023-08-01T04:46:29;7.63;;;5.27;;
3795;SDS011;1913;50.660;7.834;2023-08-01T04:48:55;9.13;;;6.10;;
3795;SDS011;1913;50.660;7.834;2023-08-01T04:51:21;12.10;;;5.77;;
3795;SDS011;1913;50.660;7.834;2023-08-01T04:53:47;8.90;;;5.80;;
3795;SDS011;1913;50.660;7.834;2023-08-01T04:56:12;12.03;;;6.73;;
3795;SDS011;1913;50.660;7.834;2023-08-01T04:58:37;10.87;;;6.40;;
3795;SDS011;1913;50.660;7.834;2023-08-01T05:01:03;11.00;;;6.87;;
3795;SDS011;1913;50.660;7.834;2023-08-01T05:03:28;11.20;;;6.67;;
3795;SDS011;1913;50.660;7.834;2023-08-01T05:05:53;9.47;;;7.00;;
3795;SDS011;1913;50.660;7.834;2023-08-01T05:08:19;11.60;;;7.03;;
3795;SDS011;1913;50.660;7.834;2023-08-01T05:10:44;9.00;;;7.53;;
3795;SDS011;1913;50.660;7.834;2023-08-01T05:13:09;15.70;;;8.43;;
3795;SDS011;1913;50.660;7.834;2023-08-01T05:15:35;9.53;;;8.07;;
3795;SDS011;1913;50.660;7.834;2023-08-01T05:18:00;11.03;;;8.70;;
3795;SDS011;1913;50.660;7.834;2023-08-01T05:20:25;11.97;;;8.57;;
3795;SDS011;1913;50.660;7.834;2023-08-01T05:22:56;12.87;;;8.27;;
3795;SDS011;1913;50.660;7.834;2023-08-01T05:25:22;13.23;;;8.70;;
3795;SDS011;1913;50.660;7.834;2023-08-01T05:27:48;13.87;;;8.27;;
3795;SDS011;1913;50.660;7.834;2023-08-01T05:30:13;17.30;;;10.03;;
3795;SDS011;1913;50.660;7.834;2023-08-01T05:32:38;13.10;;;8.23;;
3795;SDS011;1913;50.660;7.834;2023-08-01T05:35:05;17.30;;;9.27;;
3795;SDS011;1913;50.660;7.834;2023-08-01T05:37:31;14.30;;;9.17;;
3795;SDS011;1913;50.660;7.834;2023-08-01T05:39:57;14.77;;;8.60;;
3795;SDS011;1913;50.660;7.834;2023-08-01T05:42:23;16.97;;;9.67;;
3795;SDS011;1913;50.660;7.834;2023-08-01T05:44:49;16.00;;;10.00;;
3795;SDS011;1913;50.660;7.834;2023-08-01T05:47:14;17.60;;;9.63;;
3795;SDS011;1913;50.660;7.834;2023-08-01T05:49:40;11.73;;;8.97;;
3795;SDS011;1913;50.660;7.834;2023-08-01T05:52:06;14.23;;;9.13;;
3795;SDS011;1913;50.660;7.834;2023-08-01T05:54:32;12.80;;;9.60;;
3795;SDS011;1913;50.660;7.834;2023-08-01T05:56:58;14.00;;;8.43;;
3795;SDS011;1913;50.660;7.834;2023-08-01T05:59:23;14.10;;;8.10;;
3795;SDS011;1913;50.660;7.834;2023-08-01T06:01:49;9.90;;;7.00;;
3795;SDS011;1913;50.660;7.834;2023-08-01T06:04:14;11.90;;;6.90;;
3795;SDS011;1913;50.660;7.834;2023-08-01T06:06:39;7.53;;;5.20;;
3795;SDS011;1913;50.660;7.834;2023-08-01T06:09:05;10.60;;;6.50;;
3795;SDS011;1913;50.660;7.834;2023-08-01T06:11:30;7.70;;;5.40;;
3795;SDS011;1913;50.660;7.834;2023-08-01T06:13:56;21.70;;;10.57;;
3795;SDS011;1913;50.660;7.834;2023-08-01T06:16:21;8.73;;;5.50;;
3795;SDS011;1913;50.660;7.834;2023-08-01T06:18:47;13.00;;;5.40;;
3795;SDS011;1913;50.660;7.834;2023-08-01T06:21:12;9.13;;;4.90;;
3795;SDS011;1913;50.660;7.834;2023-08-01T06:23:37;12.03;;;4.70;;
3795;SDS011;1913;50.660;7.834;2023-08-01T06:26:03;10.60;;;5.23;;
3795;SDS011;1913;50.660;7.834;2023-08-01T06:28:28;8.20;;;4.77;;
3795;SDS011;1913;50.660;7.834;2023-08-01T06:30:56;10.90;;;4.70;;
3795;SDS011;1913;50.660;7.834;2023-08-01T06:33:21;9.73;;;5.23;;
3795;SDS011;1913;50.660;7.834;2023-08-01T06:35:47;9.23;;;5.27;;
3795;SDS011;1913;50.660;7.834;2023-08-01T06:38:12;7.53;;;5.20;;
3795;SDS011;1913;50.660;7.834;2023-08-01T06:40:37;9.33;;;5.83;;
3795;SDS011;1913;50.660;7.834;2023-08-01T06:43:03;11.40;;;6.03;;
3795;SDS011;1913;50.660;7.834;2023-08-01T06:45:28;11.70;;;5.17;;
3795;SDS011;1913;50.660;7.834;2023-08-01T06:47:53;10.73;;;6.30;;
3795;SDS011;1913;50.660;7.834;2023-08-01T06:50:19;13.00;;;5.60;;
3795;SDS011;1913;50.660;7.834;2023-08-01T06:52:44;7.87;;;5.83;;
3795;SDS011;1913;50.660;7.834;2023-08-01T06:55:10;11.60;;;6.23;;
3795;SDS011;1913;50.660;7.834;2023-08-01T06:57:35;9.10;;;5.80;;
3795;SDS011;1913;50.660;7.834;2023-08-01T07:00:01;11.00;;;5.47;;
3795;SDS011;1913;50.660;7.834;2023-08-01T07:02:26;11.77;;;6.20;;
3795;SDS011;1913;50.660;7.834;2023-08-01T07:04:52;14.40;;;6.30;;
3795;SDS011;1913;50.660;7.834;2023-08-01T07:07:17;8.93;;;5.70;;
3795;SDS011;1913;50.660;7.834;2023-08-01T07:09:42;10.83;;;6.47;;
3795;SDS011;1913;50.660;7.834;2023-08-01T07:12:08;7.10;;;5.67;;
3795;SDS011;1913;50.660;7.834;2023-08-01T07:14:33;11.50;;;5.20;;
3795;SDS011;1913;50.660;7.834;2023-08-01T07:16:58;11.83;;;5.60;;
3795;SDS011;1913;50.660;7.834;2023-08-01T07:19:24;9.77;;;5.20;;
3795;SDS011;1913;50.660;7.834;2023-08-01T07:21:49;12.47;;;4.77;;
3795;SDS011;1913;50.660;7.834;2023-08-01T07:24:15;10.00;;;5.27;;
3795;SDS011;1913;50.660;7.834;2023-08-01T07:26:40;8.10;;;5.50;;
3795;SDS011;1913;50.660;7.834;2023-08-01T07:29:06;6.80;;;4.40;;
3795;SDS011;1913;50.660;7.834;2023-08-01T07:31:33;10.07;;;5.23;;
3795;SDS011;1913;50.660;7.834;2023-08-01T07:33:59;10.97;;;5.10;;
3795;SDS011;1913;50.660;7.834;2023-08-01T07:36:24;8.50;;;4.93;;
3795;SDS011;1913;50.660;7.834;2023-08-01T07:38:49;7.53;;;4.43;;
3795;SDS011;1913;50.660;7.834;2023-08-01T07:41:15;8.17;;;5.03;;
3795;SDS011;1913;50.660;7.834;2023-08-01T07:43:40;11.23;;;4.20;;
3795;SDS011;1913;50.660;7.834;2023-08-01T07:46:06;7.70;;;4.87;;
3795;SDS011;1913;50.660;7.834;2023-08-01T07:48:33;9.03;;;4.80;;
3795;SDS011;1913;50.660;7.834;2023-08-01T07:50:59;7.13;;;4.70;;
3795;SDS011;1913;50.660;7.834;2023-08-01T07:53:25;7.70;;;4.03;;
3795;SDS011;1913;50.660;7.834;2023-08-01T07:55:52;10.60;;;4.60;;
3795;SDS011;1913;50.660;7.834;2023-08-01T07:58:18;7.93;;;4.17;;
3795;SDS011;1913;50.660;7.834;2023-08-01T08:00:43;6.77;;;3.80;;
3795;SDS011;1913;50.660;7.834;2023-08-01T08:03:09;10.13;;;4.20;;
3795;SDS011;1913;50.660;7.834;2023-08-01T08:05:34;9.40;;;4.30;;
3795;SDS011;1913;50.660;7.834;2023-08-01T08:08:03;10.40;;;4.80;;
3795;SDS011;1913;50.660;7.834;2023-08-01T08:10:29;8.70;;;3.77;;
3795;SDS011;1913;50.660;7.834;2023-08-01T08:12:56;9.20;;;3.80;;
3795;SDS011;1913;50.660;7.834;2023-08-01T08:15:32;8.20;;;4.10;;
3795;SDS011;1913;50.660;7.834;2023-08-01T08:18:00;6.50;;;3.70;;
3795;SDS011;1913;50.660;7.834;2023-08-01T08:20:29;8.20;;;4.10;;
3795;SDS011;1913;50.660;7.834;2023-08-01T08:22:54;6.80;;;4.00;;
3795;SDS011;1913;50.660;7.834;2023-08-01T08:25:20;9.67;;;4.50;;
3795;SDS011;1913;50.660;7.834;2023-08-01T08:27:45;10.83;;;5.00;;
3795;SDS011;1913;50.660;7.834;2023-08-01T08:30:10;14.37;;;6.70;;
3795;SDS011;1913;50.660;7.834;2023-08-01T08:32:36;14.23;;;5.90;;
3795;SDS011;1913;50.660;7.834;2023-08-01T08:35:02;8.43;;;5.73;;
3795;SDS011;1913;50.660;7.834;2023-08-01T08:37:27;7.97;;;4.63;;
3795;SDS011;1913;50.660;7.834;2023-08-01T08:39:53;7.20;;;4.77;;
3795;SDS011;1913;50.660;7.834;2023-08-01T08:42:18;12.37;;;5.27;;
3795;SDS011;1913;50.660;7.834;2023-08-01T08:44:44;7.90;;;5.37;;
3795;SDS011;1913;50.660;7.834;2023-08-01T08:47:15;11.83;;;6.93;;
3795;SDS011;1913;50.660;7.834;2023-08-01T08:49:43;11.80;;;6.73;;
3795;SDS011;1913;50.660;7.834;2023-08-01T08:52:12;11.17;;;6.90;;
3795;SDS011;1913;50.660;7.834;2023-08-01T08:54:38;6.10;;;4.70;;
3795;SDS011;1913;50.660;7.834;2023-08-01T08:57:05;10.67;;;5.10;;
3795;SDS011;1913;50.660;7.834;2023-08-01T08:59:31;6.47;;;4.97;;
3795;SDS011;1913;50.660;7.834;2023-08-01T09:01:58;9.33;;;4.03;;
3795;SDS011;1913;50.660;7.834;2023-08-01T09:04:26;3.50;;;3.00;;
3795;SDS011;1913;50.660;7.834;2023-08-01T09:06:52;8.37;;;4.57;;
3795;SDS011;1913;50.660;7.834;2023-08-01T09:09:23;7.23;;;3.70;;
3795;SDS011;1913;50.660;7.834;2023-08-01T09:11:52;7.00;;;4.03;;
3795;SDS011;1913;50.660;7.834;2023-08-01T09:14:20;11.30;;;3.97;;
3795;SDS011;1913;50.660;7.834;2023-08-01T09:16:46;12.03;;;4.13;;
3795;SDS011;1913;50.660;7.834;2023-08-01T09:19:16;9.40;;;4.30;;
3795;SDS011;1913;50.660;7.834;2023-08-01T09:21:46;8.70;;;3.40;;
3795;SDS011;1913;50.660;7.834;2023-08-01T09:24:15;7.50;;;3.90;;
3795;SDS011;1913;50.660;7.834;2023-08-01T09:26:42;8.20;;;3.57;;
3795;SDS011;1913;50.660;7.834;2023-08-01T09:29:09;6.90;;;4.00;;
3795;SDS011;1913;50.660;7.834;2023-08-01T09:31:36;9.60;;;4.20;;
3795;SDS011;1913;50.660;7.834;2023-08-01T09:34:03;7.50;;;4.20;;
3795;SDS011;1913;50.660;7.834;2023-08-01T09:36:32;7.10;;;4.30;;
3795;SDS011;1913;50.660;7.834;2023-08-01T09:39:01;9.20;;;4.57;;
3795;SDS011;1913;50.660;7.834;2023-08-01T09:41:28;7.40;;;4.40;;
3795;SDS011;1913;50.660;7.834;2023-08-01T09:43:55;8.70;;;4.50;;
3795;SDS011;1913;50.660;7.834;2023-08-01T09:46:21;7.57;;;4.27;;
3795;SDS011;1913;50.660;7.834;2023-08-01T09:48:46;8.90;;;4.77;;
3795;SDS011;1913;50.660;7.834;2023-08-01T09:51:13;8.77;;;4.20;;
3795;SDS011;1913;50.660;7.834;2023-08-01T09:54:01;7.17;;;3.83;;
3795;SDS011;1913;50.660;7.834;2023-08-01T09:56:26;6.97;;;3.90;;
3795;SDS011;1913;50.660;7.834;2023-08-01T09:58:53;8.10;;;4.00;;
3795;SDS011;1913;50.660;7.834;2023-08-01T10:01:23;8.30;;;3.97;;
3795;SDS011;1913;50.660;7.834;2023-08-01T10:03:50;7.77;;;4.20;;
3795;SDS011;1913;50.660;7.834;2023-08-01T10:06:21;11.50;;;4.97;;
3795;SDS011;1913;50.660;7.834;2023-08-01T10:08:49;10.90;;;4.00;;
3795;SDS011;1913;50.660;7.834;2023-08-01T10:11:19;9.07;;;4.10;;
3795;SDS011;1913;50.660;7.834;2023-08-01T10:13:46;8.13;;;3.77;;
3795;SDS011;1913;50.660;7.834;2023-08-01T10:16:13;10.33;;;4.00;;
3795;SDS011;1913;50.660;7.834;2023-08-01T10:18:39;5.70;;;3.77;;
3795;SDS011;1913;50.660;7.834;2023-08-01T10:21:06;7.57;;;3.50;;
3795;SDS011;1913;50.660;7.834;2023-08-01T10:23:33;6.37;;;4.00;;
3795;SDS011;1913;50.660;7.834;2023-08-01T10:26:00;4.70;;;3.20;;
3795;SDS011;1913;50.660;7.834;2023-08-01T10:28:34;6.83;;;3.50;;
3795;SDS011;1913;50.660;7.834;2023-08-01T10:31:10;5.67;;;3.10;;
3795;SDS011;1913;50.660;7.834;2023-08-01T10:33:38;8.17;;;3.83;;
3795;SDS011;1913;50.660;7.834;2023-08-01T10:36:13;6.57;;;3.17;;
3795;SDS011;1913;50.660;7.834;2023-08-01T10:41:20;7.50;;;3.63;;
3795;SDS011;1913;50.660;7.834;2023-08-01T10:44:09;6.33;;;3.33;;
3795;SDS011;1913;50.660;7.834;2023-08-01T10:49:18;6.50;;;2.63;;
3795;SDS011;1913;50.660;7.834;2023-08-01T10:51:45;7.40;;;3.20;;
3795;SDS011;1913;50.660;7.834;2023-08-01T10:54:19;8.07;;;3.00;;
3795;SDS011;1913;50.660;7.834;2023-08-01T10:56:46;4.47;;;2.70;;
3795;SDS011;1913;50.660;7.834;2023-08-01T10:59:13;4.80;;;2.90;;
3795;SDS011;1913;50.660;7.834;2023-08-01T11:01:48;4.30;;;2.80;;
3795;SDS011;1913;50.660;7.834;2023-08-01T11:04:16;10.17;;;2.70;;
3795;SDS011;1913;50.660;7.834;2023-08-01T11:06:44;4.93;;;3.37;;
3795;SDS011;1913;50.660;7.834;2023-08-01T11:09:27;3.30;;;2.50;;
3795;SDS011;1913;50.660;7.834;2023-08-01T11:11:57;5.87;;;2.87;;
3795;SDS011;1913;50.660;7.834;2023-08-01T11:14:27;6.37;;;3.30;;
3795;SDS011;1913;50.660;7.834;2023-08-01T11:16:55;5.20;;;3.23;;
3795;SDS011;1913;50.660;7.834;2023-08-01T11:19:25;8.47;;;6.07;;
3795;SDS011;1913;50.660;7.834;2023-08-01T11:21:51;7.80;;;3.67;;
3795;SDS011;1913;50.660;7.834;2023-08-01T11:24:17;8.40;;;4.60;;
3795;SDS011;1913;50.660;7.834;2023-08-01T11:26:45;14.70;;;9.00;;
3795;SDS011;1913;50.660;7.834;2023-08-01T11:29:12;9.87;;;6.37;;
3795;SDS011;1913;50.660;7.834;2023-08-01T11:31:38;6.17;;;3.37;;
3795;SDS011;1913;50.660;7.834;2023-08-01T11:34:06;7.30;;;3.73;;
3795;SDS011;1913;50.660;7.834;2023-08-01T11:36:33;6.17;;;3.70;;
3795;SDS011;1913;50.660;7.834;2023-08-01T11:38:59;6.93;;;3.83;;
3795;SDS011;1913;50.660;7.834;2023-08-01T11:41:26;4.07;;;2.83;;
3795;SDS011;1913;50.660;7.834;2023-08-01T11:43:52;5.70;;;2.87;;
3795;SDS011;1913;50.660;7.834;2023-08-01T11:46:19;6.43;;;2.50;;
3795;SDS011;1913;50.660;7.834;2023-08-01T11:48:45;5.43;;;2.70;;
3795;SDS011;1913;50.660;7.834;2023-08-01T11:51:12;5.80;;;2.83;;
3795;SDS011;1913;50.660;7.834;2023-08-01T11:53:37;4.13;;;2.73;;
3795;SDS011;1913;50.660;7.834;2023-08-01T11:56:04;4.37;;;2.70;;
3795;SDS011;1913;50.660;7.834;2023-08-01T11:58:31;7.97;;;2.60;;
3795;SDS011;1913;50.660;7.834;2023-08-01T12:01:04;5.03;;;2.57;;
3795;SDS011;1913;50.660;7.834;2023-08-01T12:03:31;4.67;;;2.60;;
3795;SDS011;1913;50.660;7.834;2023-08-01T12:06:04;5.20;;;2.00;;
3795;SDS011;1913;50.660;7.834;2023-08-01T12:08:33;4.33;;;2.40;;
3795;SDS011;1913;50.660;7.834;2023-08-01T12:10:59;4.57;;;2.30;;
3795;SDS011;1913;50.660;7.834;2023-08-01T12:13:25;3.43;;;2.07;;
3795;SDS011;1913;50.660;7.834;2023-08-01T12:15:51;2.90;;;2.20;;
3795;SDS011;1913;50.660;7.834;2023-08-01T12:18:25;3.87;;;2.10;;
3795;SDS011;1913;50.660;7.834;2023-08-01T12:20:52;3.40;;;2.00;;
3795;SDS011;1913;50.660;7.834;2023-08-01T12:23:18;4.03;;;2.07;;
3795;SDS011;1913;50.660;7.834;2023-08-01T12:25:44;5.07;;;2.53;;
3795;SDS011;1913;50.660;7.834;2023-08-01T12:28:10;5.67;;;2.20;;
3795;SDS011;1913;50.660;7.834;2023-08-01T12:30:38;6.43;;;2.27;;
3795;SDS011;1913;50.660;7.834;2023-08-01T12:33:04;8.70;;;3.00;;
3795;SDS011;1913;50.660;7.834;2023-08-01T12:35:29;5.73;;;2.80;;
3795;SDS011;1913;50.660;7.834;2023-08-01T12:37:55;7.60;;;3.90;;
3795;SDS011;1913;50.660;7.834;2023-08-01T12:40:21;10.30;;;3.73;;
3795;SDS011;1913;50.660;7.834;2023-08-01T12:42:47;5.53;;;3.23;;
3795;SDS011;1913;50.660;7.834;2023-08-01T12:45:12;8.73;;;4.83;;
3795;SDS011;1913;50.660;7.834;2023-08-01T12:47:38;11.23;;;6.10;;
3795;SDS011;1913;50.660;7.834;2023-08-01T12:50:04;8.20;;;4.60;;
3795;SDS011;1913;50.660;7.834;2023-08-01T12:52:30;10.30;;;5.40;;
3795;SDS011;1913;50.660;7.834;2023-08-01T12:54:55;8.83;;;4.93;;
3795;SDS011;1913;50.660;7.834;2023-08-01T12:57:20;9.57;;;5.03;;
3795;SDS011;1913;50.660;7.834;2023-08-01T12:59:46;5.93;;;3.20;;
3795;SDS011;1913;50.660;7.834;2023-08-01T13:02:12;10.17;;;4.90;;
3795;SDS011;1913;50.660;7.834;2023-08-01T13:04:38;7.07;;;3.73;;
3795;SDS011;1913;50.660;7.834;2023-08-01T13:07:03;9.07;;;2.90;;
3795;SDS011;1913;50.660;7.834;2023-08-01T13:09:29;7.23;;;3.67;;
3795;SDS011;1913;50.660;7.834;2023-08-01T13:11:54;4.47;;;2.50;;
3795;SDS011;1913;50.660;7.834;2023-08-01T13:14:21;4.53;;;2.60;;
3795;SDS011;1913;50.660;7.834;2023-08-01T13:16:46;4.30;;;2.43;;
3795;SDS011;1913;50.660;7.834;2023-08-01T13:19:12;5.67;;;2.30;;
3795;SDS011;1913;50.660;7.834;2023-08-01T13:21:38;6.57;;;3.00;;
3795;SDS011;1913;50.660;7.834;2023-08-01T13:24:03;5.07;;;2.50;;
3795;SDS011;1913;50.660;7.834;2023-08-01T13:26:32;2.70;;;1.93;;
3795;SDS011;1913;50.660;7.834;2023-08-01T13:28:57;4.60;;;2.10;;
3795;SDS011;1913;50.660;7.834;2023-08-01T13:31:24;3.77;;;1.80;;
3795;SDS011;1913;50.660;7.834;2023-08-01T13:33:49;9.40;;;2.57;;
3795;SDS011;1913;50.660;7.834;2023-08-01T13:36:17;4.03;;;1.93;;
3795;SDS011;1913;50.660;7.834;2023-08-01T13:38:43;3.53;;;1.73;;
3795;SDS011;1913;50.660;7.834;2023-08-01T13:41:08;6.03;;;3.53;;
3795;SDS011;1913;50.660;7.834;2023-08-01T13:43:33;4.47;;;1.97;;
3795;SDS011;1913;50.660;7.834;2023-08-01T13:45:59;3.30;;;2.20;;
3795;SDS011;1913;50.660;7.834;2023-08-01T13:48:24;3.33;;;2.00;;
3795;SDS011;1913;50.660;7.834;2023-08-01T13:50:50;3.13;;;1.63;;
3795;SDS011;1913;50.660;7.834;2023-08-01T13:53:15;6.13;;;2.90;;
3795;SDS011;1913;50.660;7.834;2023-08-01T13:55:42;2.60;;;2.03;;
3795;SDS011;1913;50.660;7.834;2023-08-01T13:58:07;4.00;;;1.90;;
3795;SDS011;1913;50.660;7.834;2023-08-01T14:00:33;4.67;;;2.37;;
3795;SDS011;1913;50.660;7.834;2023-08-01T14:02:59;3.00;;;2.03;;
3795;SDS011;1913;50.660;7.834;2023-08-01T14:05:27;4.07;;;1.70;;
3795;SDS011;1913;50.660;7.834;2023-08-01T14:07:52;6.77;;;1.87;;
3795;SDS011;1913;50.660;7.834;2023-08-01T14:10:18;1.93;;;1.47;;
3795;SDS011;1913;50.660;7.834;2023-08-01T14:12:44;2.63;;;1.73;;
3795;SDS011;1913;50.660;7.834;2023-08-01T14:15:10;2.87;;;1.50;;
3795;SDS011;1913;50.660;7.834;2023-08-01T14:17:36;2.70;;;1.53;;
3795;SDS011;1913;50.660;7.834;2023-08-01T14:20:03;2.70;;;1.27;;
3795;SDS011;1913;50.660;7.834;2023-08-01T14:22:32;2.23;;;1.60;;
3795;SDS011;1913;50.660;7.834;2023-08-01T14:24:57;4.13;;;1.83;;
3795;SDS011;1913;50.660;7.834;2023-08-01T14:27:23;1.80;;;1.50;;
3795;SDS011;1913;50.660;7.834;2023-08-01T14:29:48;3.50;;;1.70;;
3795;SDS011;1913;50.660;7.834;2023-08-01T14:32:16;4.03;;;1.90;;
3795;SDS011;1913;50.660;7.834;2023-08-01T14:34:43;2.63;;;1.60;;
3795;SDS011;1913;50.660;7.834;2023-08-01T14:37:08;3.33;;;1.70;;
3795;SDS011;1913;50.660;7.834;2023-08-01T14:39:34;3.00;;;1.40;;
3795;SDS011;1913;50.660;7.834;2023-08-01T14:41:59;2.13;;;1.53;;
3795;SDS011;1913;50.660;7.834;2023-08-01T14:44:24;2.70;;;1.67;;
3795;SDS011;1913;50.660;7.834;2023-08-01T14:46:50;2.70;;;1.43;;
3795;SDS011;1913;50.660;7.834;2023-08-01T14:49:15;2.60;;;1.50;;
3795;SDS011;1913;50.660;7.834;2023-08-01T14:51:41;2.27;;;1.57;;
3795;SDS011;1913;50.660;7.834;2023-08-01T14:54:06;2.80;;;1.50;;
3795;SDS011;1913;50.660;7.834;2023-08-01T14:56:33;2.40;;;1.30;;
3795;SDS011;1913;50.660;7.834;2023-08-01T14:58:58;1.63;;;1.53;;
3795;SDS011;1913;50.660;7.834;2023-08-01T15:01:24;3.33;;;1.50;;
3795;SDS011;1913;50.660;7.834;2023-08-01T15:03:49;3.60;;;1.70;;
3795;SDS011;1913;50.660;7.834;2023-08-01T15:06:14;4.80;;;1.93;;
3795;SDS011;1913;50.660;7.834;2023-08-01T15:08:40;2.83;;;1.70;;
3795;SDS011;1913;50.660;7.834;2023-08-01T15:11:06;2.30;;;1.40;;
3795;SDS011;1913;50.660;7.834;2023-08-01T15:13:33;2.00;;;1.50;;